Time;durP1;ratioP1;P1;durP2;ratioP2;P2;SDS_P1;SDS_P2;PMS_P1;PMS_P2;Temp;Humidity;BMP_temperature;BMP_pressure;BME280_temperature;BME280_humidity;BME280_pressure;Samples;Min_cycle;Max_cycle;Signal;HPM_P1;HPM_P2
2021/09/03 00:02:16;;;;;;;11.30;6.38;;;14.30;89.10;;;;;;5029736;28;20022;-68
2021/09/03 00:04:43;;;;;;;9.20;6.13;;;14.30;89.20;;;;;;5028427;28;20097;-69
2021/09/03 00:07:09;;;;;;;7.93;6.20;;;14.30;89.40;;;;;;5029081;28;20025;-68
2021/09/03 00:09:35;;;;;;;6.60;5.32;;;14.30;89.40;;;;;;5030156;28;20032;-68
2021/09/03 00:12:01;;;;;;;7.53;5.80;;;14.30;89.60;;;;;;5032359;28;20184;-68
2021/09/03 00:14:26;;;;;;;8.82;6.07;;;14.20;89.60;;;;;;5033631;28;20033;-69
2021/09/03 00:16:52;;;;;;;7.32;5.90;;;14.20;89.70;;;;;;5026645;28;20474;-68
2021/09/03 00:19:18;;;;;;;8.02;6.40;;;14.20;89.90;;;;;;5018813;28;20125;-68
2021/09/03 00:21:43;;;;;;;9.45;6.63;;;14.20;90.00;;;;;;5032090;28;20025;-68
2021/09/03 00:24:09;;;;;;;10.13;6.72;;;14.20;90.00;;;;;;5033443;28;20035;-66
2021/09/03 00:26:35;;;;;;;10.75;6.88;;;14.10;89.90;;;;;;5032112;28;20025;-68
2021/09/03 00:29:00;;;;;;;9.07;6.32;;;14.10;90.00;;;;;;5031992;28;20128;-68
2021/09/03 00:31:26;;;;;;;11.07;6.07;;;14.00;89.90;;;;;;5032581;28;20481;-67
2021/09/03 00:33:51;;;;;;;10.63;6.47;;;14.00;90.00;;;;;;5033653;28;20018;-65
2021/09/03 00:36:17;;;;;;;8.55;5.82;;;14.00;90.00;;;;;;5032072;28;20113;-68
2021/09/03 00:38:42;;;;;;;9.10;5.97;;;14.00;90.10;;;;;;5032418;28;20056;-68
2021/09/03 00:41:08;;;;;;;10.00;6.10;;;13.90;90.10;;;;;;5032803;28;20084;-68
2021/09/03 00:43:34;;;;;;;8.45;6.07;;;13.90;90.20;;;;;;5033452;28;20040;-65
2021/09/03 00:45:59;;;;;;;8.32;5.82;;;13.90;90.20;;;;;;5031442;28;20152;-68
2021/09/03 00:48:25;;;;;;;8.48;6.47;;;13.90;90.20;;;;;;5033292;28;20712;-68
2021/09/03 00:50:55;;;;;;;8.18;6.35;;;13.90;90.20;;;;;;5032585;28;20094;-68
2021/09/03 00:53:21;;;;;;;7.38;6.03;;;13.90;90.30;;;;;;5031152;28;20569;-69
2021/09/03 00:55:47;;;;;;;9.52;6.40;;;13.80;90.30;;;;;;5030138;28;20133;-67
2021/09/03 00:58:13;;;;;;;8.85;6.50;;;13.80;90.30;;;;;;5029957;28;20088;-68
2021/09/03 01:00:38;;;;;;;6.93;5.35;;;13.80;90.40;;;;;;5032204;28;20107;-67
2021/09/03 01:03:04;;;;;;;10.10;6.50;;;13.80;90.40;;;;;;5032225;28;20033;-65
2021/09/03 01:05:30;;;;;;;9.82;6.40;;;13.70;90.40;;;;;;5031300;28;20106;-68
2021/09/03 01:07:56;;;;;;;7.57;5.88;;;13.70;90.50;;;;;;5030736;28;20049;-68
2021/09/03 01:10:23;;;;;;;9.60;6.30;;;13.80;90.60;;;;;;5030637;28;20018;-68
2021/09/03 01:12:50;;;;;;;8.00;6.43;;;13.70;90.60;;;;;;5032405;28;20030;-65
2021/09/03 01:15:17;;;;;;;8.70;6.10;;;13.70;90.60;;;;;;5031064;28;20076;-68
2021/09/03 01:17:43;;;;;;;9.73;6.22;;;13.70;90.60;;;;;;5022506;28;20018;-68
2021/09/03 01:20:11;;;;;;;8.75;5.72;;;13.70;90.60;;;;;;5023940;28;20057;-65
2021/09/03 01:22:37;;;;;;;9.57;5.78;;;13.70;90.70;;;;;;5031663;28;20025;-68
2021/09/03 01:25:04;;;;;;;8.93;6.40;;;13.70;90.70;;;;;;5029934;28;20111;-68
2021/09/03 01:27:29;;;;;;;10.38;6.70;;;13.70;90.70;;;;;;5031169;28;20022;-66
2021/09/03 01:29:55;;;;;;;8.68;6.40;;;13.60;90.80;;;;;;5032026;28;20071;-64
2021/09/03 01:32:20;;;;;;;9.25;6.25;;;13.70;90.80;;;;;;5031577;28;20517;-68
2021/09/03 01:34:46;;;;;;;10.57;6.55;;;13.60;90.80;;;;;;5031012;28;20038;-68
2021/09/03 01:37:12;;;;;;;11.88;6.05;;;13.60;90.70;;;;;;5030500;28;20038;-67
2021/09/03 01:39:38;;;;;;;8.35;5.82;;;13.50;90.70;;;;;;5031315;28;20029;-67
2021/09/03 01:42:04;;;;;;;7.80;5.90;;;13.50;90.70;;;;;;5031286;28;20091;-67
2021/09/03 01:44:30;;;;;;;9.68;5.90;;;13.40;90.70;;;;;;5030856;28;20040;-65
2021/09/03 01:46:55;;;;;;;8.73;5.75;;;13.40;90.80;;;;;;5031161;28;20072;-67
2021/09/03 01:49:21;;;;;;;9.52;6.40;;;13.30;90.90;;;;;;5031270;28;20021;-68
2021/09/03 01:51:47;;;;;;;8.77;5.35;;;13.30;90.90;;;;;;5031766;28;20037;-67
2021/09/03 01:54:12;;;;;;;7.82;5.88;;;13.30;90.90;;;;;;5031664;28;20474;-67
2021/09/03 01:56:38;;;;;;;9.27;6.10;;;13.30;90.90;;;;;;5030224;28;20065;-68
2021/09/03 01:59:04;;;;;;;10.85;5.78;;;13.30;90.90;;;;;;5031066;28;20030;-66
2021/09/03 02:01:29;;;;;;;8.07;6.40;;;13.20;91.00;;;;;;5033834;28;20022;-68
2021/09/03 02:03:55;;;;;;;8.73;6.10;;;13.20;90.90;;;;;;5037129;28;20030;-68
2021/09/03 02:06:21;;;;;;;6.60;5.10;;;13.20;90.90;;;;;;5030573;28;20036;-68
2021/09/03 02:08:46;;;;;;;9.40;5.85;;;13.20;90.90;;;;;;5031413;28;20200;-67
2021/09/03 02:11:12;;;;;;;7.97;5.90;;;13.10;90.90;;;;;;5030695;28;20034;-65
2021/09/03 02:13:38;;;;;;;9.48;6.07;;;13.10;91.00;;;;;;5031628;28;20033;-68
2021/09/03 02:16:04;;;;;;;8.73;5.65;;;13.10;91.00;;;;;;5027837;28;20022;-67
2021/09/03 02:18:30;;;;;;;8.75;5.60;;;13.10;90.90;;;;;;5015605;28;20026;-68
2021/09/03 02:20:56;;;;;;;8.55;6.07;;;13.00;90.90;;;;;;5025493;28;20362;-67
2021/09/03 02:23:21;;;;;;;9.07;5.72;;;12.90;90.90;;;;;;5030916;28;20112;-67
2021/09/03 02:25:47;;;;;;;8.70;5.88;;;12.80;91.10;;;;;;5029943;28;20030;-68
2021/09/03 02:28:14;;;;;;;9.05;5.85;;;12.80;91.10;;;;;;5030605;28;20087;-64
2021/09/03 02:30:40;;;;;;;8.63;5.72;;;12.80;91.10;;;;;;5031026;28;20359;-68
2021/09/03 02:33:05;;;;;;;9.27;6.03;;;12.80;91.20;;;;;;5015584;28;20401;-68
2021/09/03 02:35:31;;;;;;;11.30;5.32;;;12.80;91.10;;;;;;5009772;28;20030;-67
2021/09/03 02:37:57;;;;;;;9.23;5.70;;;12.70;91.00;;;;;;5029299;28;20109;-65
2021/09/03 02:40:27;;;;;;;7.88;5.90;;;12.70;91.10;;;;;;5030166;28;20030;-68
2021/09/03 02:42:53;;;;;;;8.07;5.50;;;12.60;91.20;;;;;;5030056;28;20033;-65
2021/09/03 02:45:19;;;;;;;8.88;6.00;;;12.60;91.30;;;;;;5029646;28;20029;-65
2021/09/03 02:47:44;;;;;;;10.02;5.55;;;12.60;91.30;;;;;;5030380;28;20083;-68
2021/09/03 02:50:10;;;;;;;7.88;5.13;;;12.60;91.30;;;;;;5030974;28;20041;-67
2021/09/03 02:52:36;;;;;;;12.18;5.70;;;12.60;91.30;;;;;;5030142;28;20045;-67
2021/09/03 02:55:03;;;;;;;7.95;5.78;;;12.60;91.30;;;;;;5029395;28;20032;-67
2021/09/03 02:57:29;;;;;;;7.95;5.57;;;12.60;91.40;;;;;;5030286;28;20075;-64
2021/09/03 02:59:55;;;;;;;6.95;5.10;;;12.50;91.40;;;;;;5029564;28;20029;-68
2021/09/03 03:02:20;;;;;;;6.97;5.25;;;12.60;91.40;;;;;;5030444;28;20029;-67
2021/09/03 03:04:46;;;;;;;7.82;5.03;;;12.50;91.30;;;;;;5028879;28;20053;-68
2021/09/03 03:07:12;;;;;;;7.30;5.75;;;12.50;91.30;;;;;;5030502;28;20445;-67
2021/09/03 03:09:37;;;;;;;7.93;5.35;;;12.50;91.40;;;;;;5030392;28;20033;-68
2021/09/03 03:12:03;;;;;;;9.43;5.38;;;12.50;91.40;;;;;;5029806;28;20021;-68
2021/09/03 03:14:33;;;;;;;8.25;5.50;;;12.50;91.40;;;;;;5030260;28;20060;-67
2021/09/03 03:17:02;;;;;;;6.90;5.57;;;12.50;91.50;;;;;;5026759;28;20294;-68
2021/09/03 03:19:29;;;;;;;8.13;5.80;;;12.40;91.70;;;;;;5025336;28;20022;-66
2021/09/03 03:21:55;;;;;;;7.38;5.63;;;12.40;91.60;;;;;;5030184;28;20017;-68
2021/09/03 03:24:21;;;;;;;8.80;6.53;;;12.40;91.60;;;;;;5030032;28;20393;-68
2021/09/03 03:26:47;;;;;;;8.18;5.70;;;12.40;91.60;;;;;;5029054;28;20047;-68
2021/09/03 03:29:13;;;;;;;8.88;5.35;;;12.30;91.60;;;;;;5030125;28;20026;-67
2021/09/03 03:31:39;;;;;;;12.65;6.20;;;12.30;91.70;;;;;;5030430;28;20403;-68
2021/09/03 03:34:04;;;;;;;9.63;6.35;;;12.30;91.70;;;;;;5030581;28;20030;-67
2021/09/03 03:36:30;;;;;;;12.23;6.78;;;12.30;91.70;;;;;;5028953;28;20490;-64
2021/09/03 03:38:56;;;;;;;10.88;6.32;;;12.30;91.80;;;;;;5029627;28;20037;-68
2021/09/03 03:41:21;;;;;;;9.73;7.03;;;12.20;91.80;;;;;;5029582;28;20481;-67
2021/09/03 03:43:47;;;;;;;9.80;6.63;;;12.20;91.80;;;;;;5030471;28;20025;-68
2021/09/03 03:46:13;;;;;;;10.18;6.65;;;12.20;91.80;;;;;;5025405;28;20080;-67
2021/09/03 03:48:39;;;;;;;9.35;6.90;;;12.20;91.90;;;;;;5020507;28;20044;-66
2021/09/03 03:51:05;;;;;;;10.35;6.65;;;12.20;91.90;;;;;;5032745;28;20473;-66
2021/09/03 03:53:31;;;;;;;10.75;7.63;;;12.20;92.00;;;;;;5033753;28;20076;-67
2021/09/03 03:55:57;;;;;;;8.98;6.80;;;12.20;92.00;;;;;;5032548;28;20049;-67
2021/09/03 03:58:22;;;;;;;8.30;6.32;;;12.10;92.00;;;;;;5033451;28;20429;-67
2021/09/03 04:00:48;;;;;;;8.75;6.00;;;12.10;92.00;;;;;;5033263;28;20040;-68
2021/09/03 04:03:14;;;;;;;9.70;7.07;;;12.10;92.00;;;;;;5033811;28;20025;-68
2021/09/03 04:05:39;;;;;;;9.85;6.88;;;12.10;92.00;;;;;;5032922;28;20030;-67
2021/09/03 04:08:05;;;;;;;9.63;6.70;;;12.10;92.00;;;;;;5033229;28;20473;-65
2021/09/03 04:10:31;;;;;;;10.85;7.05;;;12.10;92.00;;;;;;5030034;28;20038;-65
2021/09/03 04:12:57;;;;;;;10.25;6.88;;;12.10;92.10;;;;;;5028034;28;20109;-64
2021/09/03 04:15:23;;;;;;;9.27;6.50;;;12.10;92.10;;;;;;5031874;28;20102;-67
2021/09/03 04:17:48;;;;;;;9.18;6.63;;;12.10;92.20;;;;;;5028358;28;20104;-67
2021/09/03 04:20:14;;;;;;;9.57;6.57;;;12.10;92.20;;;;;;5027360;28;20044;-67
2021/09/03 04:22:40;;;;;;;10.63;7.00;;;12.10;92.20;;;;;;5033123;28;20034;-64
2021/09/03 04:25:06;;;;;;;9.25;6.70;;;12.10;92.20;;;;;;5030283;28;20068;-65
2021/09/03 04:27:33;;;;;;;8.50;6.10;;;12.00;92.20;;;;;;5033162;28;20026;-67
2021/09/03 04:29:58;;;;;;;9.00;7.00;;;12.00;92.30;;;;;;5052415;22;20442;-64
2021/09/03 04:32:24;;;;;;;8.15;6.70;;;12.00;92.30;;;;;;5042229;28;20021;-64
2021/09/03 04:34:50;;;;;;;10.45;7.40;;;12.00;92.20;;;;;;5046651;28;20035;-64
2021/09/03 04:37:15;;;;;;;12.75;7.30;;;12.00;92.30;;;;;;5049566;28;20523;-63
2021/09/03 04:39:41;;;;;;;11.85;6.50;;;12.00;92.30;;;;;;5042087;28;20029;-64
2021/09/03 04:42:07;;;;;;;10.43;6.90;;;11.90;92.20;;;;;;5024521;28;20036;-63
2021/09/03 04:44:32;;;;;;;10.57;6.90;;;11.90;92.30;;;;;;5032069;28;20033;-64
2021/09/03 04:46:58;;;;;;;8.68;6.88;;;11.90;92.20;;;;;;5032633;28;20034;-64
2021/09/03 04:49:23;;;;;;;9.05;6.80;;;11.90;92.30;;;;;;5032395;28;20025;-63
2021/09/03 04:51:49;;;;;;;9.68;7.10;;;11.90;92.40;;;;;;5032401;28;20123;-64
2021/09/03 04:54:16;;;;;;;10.00;6.68;;;11.90;92.40;;;;;;5024904;28;20469;-64
2021/09/03 04:56:42;;;;;;;9.55;7.03;;;11.90;92.50;;;;;;5013766;28;20053;-64
2021/09/03 04:59:07;;;;;;;8.02;6.07;;;11.90;92.50;;;;;;5028162;28;20681;-63
2021/09/03 05:01:33;;;;;;;10.45;6.60;;;11.80;92.40;;;;;;5032185;28;20026;-64
2021/09/03 05:03:59;;;;;;;10.25;6.55;;;11.80;92.40;;;;;;5032779;28;20422;-64
2021/09/03 05:06:25;;;;;;;9.90;6.68;;;11.80;92.50;;;;;;5017115;28;20482;-64
2021/09/03 05:08:50;;;;;;;9.07;6.68;;;11.80;92.50;;;;;;5011881;28;20485;-64
2021/09/03 05:11:16;;;;;;;9.20;7.03;;;11.80;92.60;;;;;;5032571;28;20370;-64
2021/09/03 05:13:41;;;;;;;9.05;6.50;;;11.90;92.60;;;;;;5027966;28;20029;-64
2021/09/03 05:16:07;;;;;;;11.55;7.10;;;11.90;92.60;;;;;;5031525;28;20034;-64
2021/09/03 05:18:33;;;;;;;10.93;6.57;;;11.90;92.60;;;;;;5028203;28;20083;-64
2021/09/03 05:20:59;;;;;;;11.88;7.40;;;11.90;92.60;;;;;;5036697;28;20060;-64
2021/09/03 05:23:25;;;;;;;10.27;7.18;;;11.90;92.70;;;;;;5032102;28;20033;-64
2021/09/03 05:25:50;;;;;;;9.85;7.00;;;12.00;92.70;;;;;;5028280;28;20029;-64
2021/09/03 05:28:16;;;;;;;8.70;6.53;;;12.00;92.70;;;;;;5031853;28;20017;-64
2021/09/03 05:30:42;;;;;;;9.07;6.68;;;12.00;92.70;;;;;;5028829;28;20457;-64
2021/09/03 05:33:07;;;;;;;9.57;6.25;;;12.00;92.70;;;;;;5032355;28;20022;-64
2021/09/03 05:35:33;;;;;;;8.27;5.70;;;12.00;92.70;;;;;;5030782;28;20045;-64
2021/09/03 05:38:04;;;;;;;9.40;6.63;;;12.00;92.90;;;;;;5020145;28;20104;-64
2021/09/03 05:40:30;;;;;;;10.30;6.97;;;12.00;92.80;;;;;;5021006;28;20474;-64
2021/09/03 05:42:55;;;;;;;11.70;6.65;;;12.10;92.80;;;;;;5031896;28;20219;-64
2021/09/03 05:45:21;;;;;;;10.43;6.45;;;12.10;92.80;;;;;;5028564;28;20741;-64
2021/09/03 05:47:47;;;;;;;9.55;6.47;;;12.10;92.90;;;;;;5025533;28;20359;-64
2021/09/03 05:50:15;;;;;;;10.85;6.90;;;12.10;92.90;;;;;;5020885;28;20045;-64
2021/09/03 05:52:41;;;;;;;9.55;7.15;;;12.10;92.90;;;;;;5022368;28;20029;-64
2021/09/03 05:55:07;;;;;;;14.30;7.20;;;12.20;93.00;;;;;;5012616;28;20031;-67
2021/09/03 05:57:33;;;;;;;11.88;7.10;;;12.20;93.00;;;;;;5031227;28;20026;-64
2021/09/03 05:59:59;;;;;;;8.85;6.32;;;12.20;93.00;;;;;;5030881;28;20068;-64
2021/09/03 06:02:25;;;;;;;14.00;7.30;;;12.30;93.00;;;;;;5030215;28;20099;-65
2021/09/03 06:04:51;;;;;;;11.43;7.45;;;12.30;93.00;;;;;;5030203;28;20473;-64
2021/09/03 06:07:16;;;;;;;13.23;7.85;;;12.30;93.00;;;;;;5027460;28;20079;-64
2021/09/03 06:09:42;;;;;;;10.90;7.43;;;12.40;93.10;;;;;;5028651;28;20101;-63
2021/09/03 06:12:08;;;;;;;10.85;7.55;;;12.40;93.00;;;;;;5029465;28;20609;-64
2021/09/03 06:14:33;;;;;;;10.85;7.60;;;12.40;93.00;;;;;;5030556;28;20025;-62
2021/09/03 06:16:59;;;;;;;11.20;7.65;;;12.40;93.10;;;;;;5032321;28;20026;-63
2021/09/03 06:19:25;;;;;;;10.23;7.32;;;12.50;93.10;;;;;;5041566;28;20049;-64
2021/09/03 06:21:50;;;;;;;9.68;7.30;;;12.50;93.10;;;;;;5011748;28;20055;-63
2021/09/03 06:24:29;;;;;;;11.23;7.45;;;12.60;93.10;;;;;;5031251;28;20055;-63
2021/09/03 06:27:06;;;;;;;10.50;7.05;;;12.60;93.10;;;;;;5030411;28;20025;-63
2021/09/03 06:29:41;;;;;;;11.13;7.68;;;12.60;93.10;;;;;;5029267;28;20064;-64
2021/09/03 06:32:10;;;;;;;12.35;7.15;;;12.60;93.20;;;;;;5029796;28;20469;-64
2021/09/03 06:34:37;;;;;;;14.60;7.10;;;12.70;93.20;;;;;;5030038;28;20021;-63
2021/09/03 06:37:03;;;;;;;9.80;7.30;;;12.80;93.30;;;;;;5030746;28;20033;-64
2021/09/03 06:39:29;;;;;;;10.75;7.57;;;12.80;93.30;;;;;;5029298;28;20075;-63
2021/09/03 06:41:55;;;;;;;12.77;7.20;;;12.90;93.30;;;;;;5031644;28;20109;-65
2021/09/03 06:44:20;;;;;;;9.25;7.32;;;12.90;93.30;;;;;;5029663;28;20038;-64
2021/09/03 06:46:46;;;;;;;9.85;6.95;;;12.90;93.30;;;;;;5012196;28;20026;-64
2021/09/03 06:49:11;;;;;;;10.93;7.80;;;13.00;93.30;;;;;;5021337;28;20030;-63
2021/09/03 06:51:37;;;;;;;11.30;7.53;;;13.00;93.30;;;;;;5027839;28;20061;-64
2021/09/03 06:54:03;;;;;;;11.60;7.20;;;13.10;93.40;;;;;;5026355;28;20025;-64
2021/09/03 06:56:28;;;;;;;9.32;7.18;;;13.10;93.30;;;;;;5030696;28;20033;-63
2021/09/03 06:58:54;;;;;;;9.48;7.20;;;13.20;93.40;;;;;;5025757;28;20083;-64
2021/09/03 07:01:19;;;;;;;9.40;6.80;;;13.20;93.40;;;;;;5030442;28;20075;-63
2021/09/03 07:03:45;;;;;;;9.75;7.57;;;13.30;93.40;;;;;;5024455;28;20033;-64
2021/09/03 07:06:11;;;;;;;11.73;7.35;;;13.30;93.40;;;;;;5029792;28;20108;-62
2021/09/03 07:08:36;;;;;;;10.70;7.40;;;13.40;93.40;;;;;;5029894;28;20037;-62
2021/09/03 07:11:02;;;;;;;10.48;7.30;;;13.50;93.40;;;;;;5030395;28;20028;-64
2021/09/03 07:13:28;;;;;;;9.75;6.90;;;13.60;93.40;;;;;;5018346;28;20075;-64
2021/09/03 07:15:53;;;;;;;9.93;6.85;;;13.70;93.50;;;;;;5025133;28;20026;-65
2021/09/03 07:18:19;;;;;;;10.30;6.78;;;13.80;93.40;;;;;;5034838;28;20021;-63
2021/09/03 07:20:45;;;;;;;11.60;7.30;;;13.90;93.30;;;;;;5030219;28;20025;-64
2021/09/03 07:23:10;;;;;;;9.50;6.78;;;14.00;93.40;;;;;;5030669;28;20076;-64
2021/09/03 07:25:36;;;;;;;10.95;6.60;;;14.20;93.40;;;;;;5030084;28;20031;-64
2021/09/03 07:28:02;;;;;;;7.85;5.85;;;14.30;93.50;;;;;;5030553;28;20565;-64
2021/09/03 07:30:27;;;;;;;8.85;5.50;;;14.60;93.20;;;;;;5038947;28;20028;-64
2021/09/03 07:32:53;;;;;;;7.55;5.50;;;15.00;92.90;;;;;;5029077;28;20030;-63
2021/09/03 07:35:18;;;;;;;8.32;5.60;;;15.50;92.40;;;;;;5029304;28;20059;-64
2021/09/03 07:37:44;;;;;;;5.95;4.70;;;16.10;91.90;;;;;;5030124;28;20088;-64
2021/09/03 07:40:10;;;;;;;7.97;4.75;;;16.60;91.40;;;;;;5030411;28;20057;-65
2021/09/03 07:42:36;;;;;;;7.25;4.85;;;17.10;91.00;;;;;;5030164;28;20022;-65
2021/09/03 07:45:03;;;;;;;9.27;5.32;;;17.50;90.60;;;;;;5029928;28;20037;-65
2021/09/03 07:47:29;;;;;;;9.57;4.68;;;17.60;90.40;;;;;;5027612;28;20029;-64
2021/09/03 07:49:55;;;;;;;6.00;3.83;;;17.80;90.30;;;;;;5020402;28;20080;-64
2021/09/03 07:52:21;;;;;;;7.47;4.35;;;18.40;89.70;;;;;;5030331;28;20036;-64
2021/09/03 07:54:47;;;;;;;9.20;4.43;;;19.10;88.00;;;;;;5029389;28;20026;-65
2021/09/03 07:57:13;;;;;;;6.75;4.10;;;19.70;86.30;;;;;;5029589;28;20068;-65
2021/09/03 07:59:38;;;;;;;6.47;4.10;;;20.30;84.90;;;;;;5030188;28;20506;-65
2021/09/03 08:02:04;;;;;;;6.78;4.47;;;20.80;83.40;;;;;;5029855;28;20458;-65
2021/09/03 08:04:31;;;;;;;9.43;4.75;;;21.20;82.10;;;;;;5030007;28;20501;-64
2021/09/03 08:06:57;;;;;;;9.35;4.13;;;21.60;81.10;;;;;;5030025;28;20465;-65
2021/09/03 08:09:23;;;;;;;4.88;4.05;;;22.10;79.90;;;;;;5029777;28;20049;-65
2021/09/03 08:11:49;;;;;;;9.73;4.18;;;22.50;78.70;;;;;;5025955;28;20065;-65
2021/09/03 08:14:15;;;;;;;7.03;3.67;;;23.00;77.30;;;;;;5030104;28;20029;-65
2021/09/03 08:16:41;;;;;;;7.25;4.28;;;23.40;75.80;;;;;;5033464;28;20017;-64
2021/09/03 08:19:07;;;;;;;7.25;3.80;;;23.90;74.60;;;;;;5041859;28;20065;-65
2021/09/03 08:21:32;;;;;;;4.22;3.80;;;24.20;73.40;;;;;;5029993;28;20049;-65
2021/09/03 08:23:58;;;;;;;7.45;3.95;;;24.50;72.10;;;;;;5030008;28;20021;-64
2021/09/03 08:26:24;;;;;;;7.53;3.70;;;24.70;71.30;;;;;;5028049;28;20488;-65
2021/09/03 08:28:49;;;;;;;7.18;4.20;;;24.80;70.50;;;;;;5030027;28;20056;-65
2021/09/03 08:31:15;;;;;;;5.20;4.35;;;24.80;69.90;;;;;;5029677;28;20029;-65
2021/09/03 08:33:40;;;;;;;5.75;3.58;;;24.80;69.60;;;;;;5032245;28;20036;-65
2021/09/03 08:36:06;;;;;;;5.75;3.60;;;24.80;69.80;;;;;;5032857;28;20059;-65
2021/09/03 08:38:32;;;;;;;4.88;3.70;;;24.80;70.00;;;;;;5033244;28;20458;-65
2021/09/03 08:40:58;;;;;;;5.43;4.10;;;24.70;70.30;;;;;;5006248;28;20116;-65
2021/09/03 08:43:25;;;;;;;5.65;3.80;;;24.50;70.40;;;;;;5030535;28;20052;-65
2021/09/03 08:45:51;;;;;;;7.57;4.05;;;24.40;70.60;;;;;;5032685;28;20032;-65
2021/09/03 08:48:23;;;;;;;9.15;3.92;;;24.20;70.80;;;;;;5032992;28;20034;-65
2021/09/03 08:50:50;;;;;;;4.75;3.47;;;24.20;71.40;;;;;;5033457;28;20120;-65
2021/09/03 08:53:17;;;;;;;4.72;3.60;;;24.20;71.40;;;;;;5029711;28;20052;-65
2021/09/03 08:55:45;;;;;;;5.43;3.70;;;24.10;71.20;;;;;;5032700;28;20026;-65
2021/09/03 08:58:11;;;;;;;4.80;3.53;;;24.10;70.70;;;;;;5032454;28;20028;-65
2021/09/03 09:00:37;;;;;;;5.82;3.60;;;24.20;70.50;;;;;;5032636;28;20021;-65
2021/09/03 09:03:05;;;;;;;5.90;4.78;;;24.10;69.50;;;;;;5014931;28;20026;-65
2021/09/03 09:05:51;;;;;;;4.03;3.33;;;24.00;69.40;;;;;;5027887;28;20033;-65
2021/09/03 09:08:19;;;;;;;3.90;3.50;;;24.00;69.20;;;;;;5022892;28;20021;-66
2021/09/03 09:10:56;;;;;;;4.25;3.38;;;24.00;69.70;;;;;;5023430;28;20041;-66
2021/09/03 09:13:25;;;;;;;5.60;3.85;;;24.00;69.10;;;;;;5030603;28;20029;-65
2021/09/03 09:16:03;;;;;;;4.65;3.58;;;24.20;69.00;;;;;;5031446;28;20026;-65
2021/09/03 09:18:51;;;;;;;5.15;3.42;;;24.10;67.70;;;;;;5042514;28;20481;-65
2021/09/03 09:21:28;;;;;;;5.07;3.50;;;24.10;67.50;;;;;;5035608;28;20056;-66
2021/09/03 09:24:01;;;;;;;4.13;3.28;;;24.10;68.00;;;;;;5032519;28;20429;-65
2021/09/03 09:26:51;;;;;;;3.83;3.15;;;24.10;67.10;;;;;;5031561;28;20032;-65
2021/09/03 09:29:25;;;;;;;5.45;3.10;;;24.00;66.80;;;;;;5031814;28;20151;-65
2021/09/03 09:32:03;;;;;;;5.22;3.20;;;23.90;67.00;;;;;;5032642;28;20100;-66
2021/09/03 09:34:30;;;;;;;5.75;3.72;;;23.90;67.00;;;;;;5032202;28;20371;-65
2021/09/03 09:36:59;;;;;;;6.65;3.47;;;23.80;67.20;;;;;;5031758;28;20071;-66
2021/09/03 09:39:25;;;;;;;5.97;3.40;;;23.90;66.60;;;;;;5032273;28;20030;-65
2021/09/03 09:42:02;;;;;;;4.55;3.13;;;23.90;66.60;;;;;;5031917;28;20029;-65
2021/09/03 09:44:33;;;;;;;3.08;2.78;;;23.90;65.20;;;;;;5012007;28;20036;-64
2021/09/03 09:47:07;;;;;;;4.75;3.38;;;23.80;65.60;;;;;;5032039;28;20025;-65
2021/09/03 09:49:33;;;;;;;7.65;3.30;;;23.90;65.40;;;;;;5031940;28;20064;-65
2021/09/03 09:51:58;;;;;;;3.75;2.90;;;23.90;66.20;;;;;;5032111;28;20026;-65
2021/09/03 09:54:25;;;;;;;3.92;2.72;;;23.90;66.00;;;;;;5031961;28;20453;-65
2021/09/03 09:56:56;;;;;;;4.15;2.97;;;23.90;65.30;;;;;;5030594;28;20382;-65
2021/09/03 09:59:24;;;;;;;4.57;3.22;;;23.90;64.80;;;;;;5031529;28;20060;-65
2021/09/03 10:01:55;;;;;;;7.05;3.40;;;24.00;64.80;;;;;;5031775;28;20040;-66
2021/09/03 10:04:24;;;;;;;3.38;2.83;;;23.90;64.30;;;;;;5032118;28;20388;-65
2021/09/03 10:06:51;;;;;;;3.72;2.97;;;24.00;64.60;;;;;;5031215;28;20432;-65
2021/09/03 10:09:19;;;;;;;3.30;3.00;;;24.10;64.50;;;;;;5011879;28;20030;-66
2021/09/03 10:11:50;;;;;;;3.00;2.70;;;24.20;64.90;;;;;;5014086;28;20766;-66
2021/09/03 10:14:23;;;;;;;3.28;2.80;;;24.30;64.70;;;;;;5031275;28;20045;-65
2021/09/03 10:16:50;;;;;;;2.85;2.50;;;24.30;64.10;;;;;;5035704;28;20162;-66
2021/09/03 10:19:23;;;;;;;4.05;2.83;;;24.50;63.60;;;;;;5043553;28;20025;-66
2021/09/03 10:21:49;;;;;;;5.85;2.60;;;24.50;63.30;;;;;;5013773;28;20434;-65
2021/09/03 10:24:22;;;;;;;3.55;2.75;;;24.60;62.90;;;;;;5031199;28;20026;-66
2021/09/03 10:26:49;;;;;;;2.67;2.47;;;24.50;61.90;;;;;;5030721;28;20029;-66
2021/09/03 10:32:07;;;;;;;4.53;2.55;;;24.50;61.60;;;;;;5048122;28;20033;-68
2021/09/03 10:34:50;;;;;;;3.03;2.70;;;24.50;61.10;;;;;;5035654;28;20035;-68
2021/09/03 10:37:15;;;;;;;4.53;2.63;;;24.60;61.70;;;;;;5062365;28;20025;-67
2021/09/03 10:39:43;;;;;;;6.05;2.85;;;24.60;61.20;;;;;;5033507;28;20500;-67
2021/09/03 10:42:08;;;;;;;3.55;2.78;;;24.70;61.00;;;;;;5050877;28;20099;-68
2021/09/03 10:45:02;;;;;;;7.03;2.63;;;24.70;60.60;;;;;;5050648;28;20116;-67
2021/09/03 10:47:31;;;;;;;3.72;2.40;;;24.80;59.80;;;;;;5050516;28;20021;-67
2021/09/03 10:49:57;;;;;;;6.20;2.30;;;24.80;59.70;;;;;;5021972;28;20044;-67
2021/09/03 10:52:23;;;;;;;2.90;2.45;;;24.90;60.00;;;;;;5031269;28;20048;-67
2021/09/03 10:54:49;;;;;;;3.17;2.72;;;24.90;59.20;;;;;;5029992;28;20481;-67
2021/09/03 10:57:18;;;;;;;2.67;2.35;;;24.90;59.10;;;;;;5033252;28;22195;-67
2021/09/03 11:00:15;;;;;;;2.83;2.35;;;24.90;58.80;;;;;;5050233;28;20048;-68
2021/09/03 11:02:41;;;;;;;23.05;12.70;;;24.90;58.50;;;;;;5031122;28;20470;-68
2021/09/03 11:05:11;;;;;;;72.68;31.20;;;24.90;58.80;;;;;;5044159;28;20162;-67
2021/09/03 11:07:46;;;;;;;43.60;16.27;;;24.90;58.60;;;;;;5045875;28;20112;-68
2021/09/03 11:10:20;;;;;;;33.45;15.50;;;24.90;58.10;;;;;;5048651;28;20104;-67
2021/09/03 11:12:49;;;;;;;7.55;4.07;;;24.80;58.00;;;;;;5047187;28;20036;-67
2021/09/03 11:15:15;;;;;;;7.43;4.97;;;24.80;58.20;;;;;;5029293;28;20024;-67
2021/09/03 11:17:41;;;;;;;16.67;9.90;;;24.80;58.70;;;;;;5049429;28;20025;-68
2021/09/03 11:20:07;;;;;;;4.32;3.15;;;24.80;58.40;;;;;;5040446;28;20384;-68
2021/09/03 11:22:36;;;;;;;4.75;4.05;;;24.80;58.60;;;;;;5039836;28;20485;-68
2021/09/03 11:25:04;;;;;;;3.53;2.60;;;24.80;58.80;;;;;;5045061;28;20032;-68
2021/09/03 11:27:30;;;;;;;3.10;2.80;;;24.80;58.20;;;;;;5045254;28;20029;-68
2021/09/03 11:30:09;;;;;;;4.57;2.38;;;24.80;58.50;;;;;;5045780;28;20044;-68
2021/09/03 11:32:38;;;;;;;3.10;2.80;;;24.80;58.30;;;;;;5038036;28;20030;-68
2021/09/03 11:35:08;;;;;;;3.65;2.83;;;24.90;58.10;;;;;;5039355;28;20024;-68
2021/09/03 11:37:47;;;;;;;3.85;2.97;;;24.80;58.00;;;;;;5038401;28;20024;-68
2021/09/03 11:40:20;;;;;;;3.28;2.65;;;24.90;58.20;;;;;;5041021;28;20018;-68
2021/09/03 11:43:06;;;;;;;3.95;2.75;;;24.90;58.50;;;;;;5043333;28;20048;-68
2021/09/03 11:45:40;;;;;;;3.58;2.90;;;25.00;58.90;;;;;;5023931;28;20425;-68
2021/09/03 11:48:15;;;;;;;3.38;2.42;;;25.10;58.80;;;;;;5033568;28;20026;-67
2021/09/03 11:50:43;;;;;;;2.83;2.40;;;25.10;58.10;;;;;;5012756;28;20051;-68
2021/09/03 11:53:17;;;;;;;4.15;3.00;;;25.20;58.30;;;;;;5039106;28;20032;-68
2021/09/03 11:55:46;;;;;;;2.90;2.60;;;25.30;58.20;;;;;;5049148;28;20484;-68
2021/09/03 11:58:13;;;;;;;7.05;5.38;;;25.30;58.10;;;;;;5045029;28;20049;-68
2021/09/03 12:00:44;;;;;;;6.47;3.60;;;25.40;57.80;;;;;;5048314;28;20104;-67
2021/09/03 12:03:11;;;;;;;5.70;3.33;;;25.40;57.10;;;;;;5042876;28;20013;-68
2021/09/03 12:05:38;;;;;;;6.50;2.75;;;25.40;57.20;;;;;;5041358;28;20040;-68
2021/09/03 12:08:13;;;;;;;5.70;2.85;;;25.40;56.60;;;;;;5051944;28;20039;-67
2021/09/03 12:10:57;;;;;;;3.75;2.75;;;25.30;56.20;;;;;;5053363;28;20029;-67
2021/09/03 12:13:28;;;;;;;23.45;12.90;;;25.40;56.70;;;;;;5047026;28;20024;-66
2021/09/03 12:16:06;;;;;;;14.60;7.13;;;25.50;57.10;;;;;;5033019;28;20063;-68
2021/09/03 12:18:37;;;;;;;3.50;2.85;;;25.60;57.10;;;;;;5052547;28;20481;-68
2021/09/03 12:21:20;;;;;;;4.32;3.00;;;25.60;56.30;;;;;;5051445;28;20151;-68
2021/09/03 12:23:59;;;;;;;3.75;2.97;;;25.60;56.20;;;;;;5053119;28;20476;-67
2021/09/03 12:26:47;;;;;;;3.83;2.60;;;25.60;56.00;;;;;;5051071;28;20396;-68
2021/09/03 12:29:13;;;;;;;5.25;3.10;;;25.60;56.30;;;;;;5048488;28;20493;-68
2021/09/03 12:31:39;;;;;;;3.40;2.75;;;25.60;56.30;;;;;;5051078;28;20032;-67
2021/09/03 12:34:09;;;;;;;3.80;2.35;;;25.70;56.30;;;;;;5033999;28;20029;-67
2021/09/03 12:36:38;;;;;;;6.45;2.97;;;25.70;55.50;;;;;;5037211;28;20033;-68
2021/09/03 12:39:06;;;;;;;3.63;2.60;;;25.80;55.90;;;;;;5052295;28;20017;-67
2021/09/03 12:41:34;;;;;;;3.22;2.80;;;25.90;55.90;;;;;;5053126;28;20029;-67
2021/09/03 12:44:04;;;;;;;2.97;2.65;;;25.80;55.60;;;;;;5044319;28;20686;-67
2021/09/03 12:46:36;;;;;;;4.55;2.80;;;25.90;55.50;;;;;;5045086;28;20048;-67
2021/09/03 12:49:02;;;;;;;2.42;2.22;;;25.90;55.20;;;;;;5047153;28;20100;-67
2021/09/03 12:51:29;;;;;;;6.18;3.00;;;26.00;55.60;;;;;;5035528;28;20032;-67